createdAt,value
2022-09-11T00:07:05.242Z,12.90
2022-09-11T00:09:42.819Z,13.10
2022-09-11T00:12:18.043Z,14.40
2022-09-11T00:14:57.433Z,14.60
2022-09-11T00:17:55.585Z,14.60
2022-09-11T00:20:33.768Z,14.80
2022-09-11T00:26:33.892Z,14.40
2022-09-11T00:36:06.369Z,17.20
2022-09-11T00:39:32.302Z,21.40
2022-09-11T00:42:35.383Z,18.30
2022-09-11T00:45:36.865Z,20.60
2022-09-11T00:48:36.192Z,19.90
2022-09-11T00:51:35.867Z,19.30
2022-09-11T00:57:47.962Z,15.70
2022-09-11T01:00:26.407Z,13.70
2022-09-11T01:03:26.099Z,13.90
2022-09-11T01:06:14.439Z,14.80
2022-09-11T01:08:50.602Z,16.30
2022-09-11T01:11:44.909Z,17.70
2022-09-11T01:18:09.333Z,22.00
2022-09-11T01:21:00.197Z,19.20
2022-09-11T01:27:53.792Z,20.20
2022-09-11T01:30:36.947Z,19.20
2022-09-11T01:39:38.272Z,23.80
2022-09-11T01:42:23.010Z,24.80
2022-09-11T01:45:02.634Z,26.90
2022-09-11T01:47:36.963Z,26.00
2022-09-11T01:50:18.440Z,29.50
2022-09-11T01:53:04.529Z,27.50
2022-09-11T01:55:49.356Z,25.00
2022-09-11T02:02:07.539Z,21.40
2022-09-11T02:04:48.150Z,19.20
2022-09-11T02:11:05.089Z,15.20
2022-09-11T02:14:09.631Z,14.00
2022-09-11T02:20:49.092Z,12.70
2022-09-11T02:23:30.169Z,11.80
2022-09-11T02:26:52.399Z,11.80
2022-09-11T02:29:54.334Z,12.00
2022-09-11T02:32:53.389Z,12.10
2022-09-11T02:35:29.817Z,11.30
2022-09-11T02:38:16.849Z,11.30
2022-09-11T02:44:37.059Z,11.70
2022-09-11T02:50:37.725Z,15.10
2022-09-11T02:54:08.064Z,15.60
2022-09-11T03:00:27.551Z,13.10
2022-09-11T03:03:02.495Z,12.50
2022-09-11T03:06:07.628Z,13.10
2022-09-11T03:08:46.635Z,14.40
2022-09-11T03:12:37.394Z,14.40
2022-09-11T03:16:02.231Z,12.90
2022-09-11T03:19:04.745Z,11.50
2022-09-11T03:21:44.402Z,12.10
2022-09-11T03:25:09.151Z,11.80
2022-09-11T03:36:58.730Z,14.20
2022-09-11T03:39:34.521Z,14.00
2022-09-11T03:42:14.198Z,15.70
2022-09-11T03:45:39.751Z,18.70
2022-09-11T03:49:03.520Z,20.40
2022-09-11T03:52:04.529Z,20.40
2022-09-11T03:54:49.001Z,19.80
2022-09-11T03:57:50.087Z,20.60
2022-09-11T04:00:54.532Z,22.70
2022-09-11T04:03:31.646Z,22.60
2022-09-11T04:06:34.538Z,22.80
2022-09-11T04:09:08.682Z,22.00
2022-09-11T04:12:14.454Z,20.60
2022-09-11T04:15:18.095Z,19.40
2022-09-11T04:18:02.181Z,17.90
2022-09-11T04:22:17.686Z,16.40
2022-09-11T04:25:41.363Z,15.30
2022-09-11T04:29:04.207Z,13.90
2022-09-11T04:32:07.099Z,12.80
2022-09-11T04:34:44.086Z,13.10
2022-09-11T04:38:04.772Z,14.10
2022-09-11T04:41:30.977Z,15.10
2022-09-11T04:44:30.304Z,15.80
2022-09-11T04:47:28.227Z,16.50
2022-09-11T04:50:28.939Z,16.80
2022-09-11T04:53:03.778Z,20.30
2022-09-11T04:56:03.214Z,19.30
2022-09-11T04:59:10.046Z,18.90
2022-09-11T05:01:52.419Z,18.00
2022-09-11T05:04:30.750Z,17.80
2022-09-11T05:07:05.047Z,17.70
2022-09-11T05:09:39.506Z,16.60
2022-09-11T05:12:14.591Z,15.90
2022-09-11T05:14:52.533Z,14.30
2022-09-11T05:17:57.088Z,14.30
2022-09-11T05:24:53.059Z,14.50
2022-09-11T05:27:30.125Z,14.90
2022-09-11T05:30:33.538Z,14.40
2022-09-11T05:33:16.851Z,14.10
2022-09-11T05:36:37.916Z,13.00
2022-09-11T05:40:00.467Z,14.00
2022-09-11T05:42:36.164Z,13.80
2022-09-11T05:45:22.649Z,13.70
2022-09-11T05:48:03.631Z,13.60
2022-09-11T05:54:00.950Z,15.80
2022-09-11T05:56:36.166Z,16.70
2022-09-11T05:59:39.841Z,17.20
2022-09-11T06:02:40.374Z,20.10
2022-09-11T06:05:44.954Z,20.10
2022-09-11T06:08:28.382Z,20.40
2022-09-11T06:11:30.321Z,19.50
2022-09-11T06:14:28.426Z,17.90
2022-09-11T06:17:31.905Z,19.20
2022-09-11T06:20:41.230Z,19.50
2022-09-11T06:26:39.306Z,21.40
2022-09-11T06:29:17.884Z,19.70
2022-09-11T06:31:58.322Z,21.30
2022-09-11T06:34:36.544Z,20.90
2022-09-11T06:37:37.120Z,21.30
2022-09-11T06:40:38.229Z,22.50
2022-09-11T06:43:39.047Z,20.20
2022-09-11T06:46:39.454Z,21.60
2022-09-11T06:49:17.040Z,21.70
2022-09-11T06:51:56.383Z,21.10
2022-09-11T06:57:51.450Z,22.50
2022-09-11T07:00:31.304Z,23.00
2022-09-11T07:03:11.988Z,21.30
2022-09-11T07:05:51.999Z,20.30
2022-09-11T07:08:53.267Z,18.30
2022-09-11T07:11:28.096Z,15.80
2022-09-11T07:15:15.965Z,13.70
2022-09-11T07:17:50.751Z,13.60
2022-09-11T07:20:53.577Z,12.80
2022-09-11T07:24:38.868Z,11.90
2022-09-11T07:28:04.965Z,11.10
2022-09-11T07:30:42.172Z,10.90
2022-09-11T07:33:18.845Z,9.20
2022-09-11T07:36:18.774Z,8.50
2022-09-11T07:38:58.337Z,8.90
2022-09-11T07:41:34.243Z,9.70
2022-09-11T07:44:17.151Z,10.10
2022-09-11T07:47:19.369Z,10.80
2022-09-11T07:49:52.707Z,10.80
2022-09-11T07:56:20.718Z,9.70
2022-09-11T07:58:57.265Z,11.90
2022-09-11T08:01:35.727Z,9.60
2022-09-11T08:04:11.723Z,9.10
2022-09-11T08:06:48.014Z,9.60
2022-09-11T08:09:21.186Z,8.30
2022-09-11T08:11:56.307Z,7.80
2022-09-11T08:14:29.307Z,13.60
2022-09-11T08:17:02.951Z,16.80
2022-09-11T08:19:39.223Z,11.10
2022-09-11T08:22:12.469Z,6.90
2022-09-11T08:24:45.054Z,7.10
2022-09-11T08:27:20.183Z,6.20
2022-09-11T08:29:53.375Z,8.60
2022-09-11T08:32:25.648Z,6.80
2022-09-11T08:34:59.842Z,7.10
2022-09-11T08:37:34.268Z,7.30
2022-09-11T08:40:10.438Z,6.80
2022-09-11T08:42:46.130Z,5.90
2022-09-11T08:45:21.610Z,8.10
2022-09-11T08:47:59.307Z,5.60
2022-09-11T08:50:36.231Z,5.80
2022-09-11T08:53:12.839Z,5.80
2022-09-11T08:55:48.463Z,5.40
2022-09-11T08:58:27.730Z,5.70
2022-09-11T09:01:09.858Z,5.20
2022-09-11T09:03:59.376Z,5.50
2022-09-11T09:06:43.893Z,5.60
2022-09-11T09:09:22.942Z,6.60
2022-09-11T09:11:59.983Z,7.00
2022-09-11T09:14:53.635Z,6.40
2022-09-11T09:17:28.155Z,6.50
2022-09-11T09:20:04.454Z,8.30
2022-09-11T09:22:44.138Z,8.90
2022-09-11T09:25:23.806Z,8.40
2022-09-11T09:28:00.592Z,6.30
2022-09-11T09:30:45.438Z,6.60
2022-09-11T09:33:31.994Z,7.40
2022-09-11T09:36:17.569Z,7.10
2022-09-11T09:38:50.293Z,7.00
2022-09-11T09:41:44.506Z,6.60
2022-09-11T09:44:24.412Z,7.20
2022-09-11T09:46:57.733Z,5.90
2022-09-11T09:49:31.812Z,6.90
2022-09-11T09:52:14.364Z,6.80
2022-09-11T09:54:53.694Z,7.30
2022-09-11T09:58:01.210Z,7.80
2022-09-11T10:00:39.406Z,8.40
2022-09-11T10:03:54.540Z,7.50
2022-09-11T10:06:58.901Z,9.60
2022-09-11T10:09:34.842Z,7.60
2022-09-11T10:16:02.926Z,6.80
2022-09-11T10:19:11.885Z,7.90
2022-09-11T10:22:01.177Z,7.20
2022-09-11T10:24:41.424Z,7.30
2022-09-11T10:31:08.405Z,7.90
2022-09-11T10:33:53.750Z,13.70
2022-09-11T10:36:34.954Z,8.20
2022-09-11T10:39:23.299Z,7.00
2022-09-11T10:45:35.157Z,6.30
2022-09-11T10:52:25.480Z,6.10
2022-09-11T10:55:19.147Z,5.20
2022-09-11T11:04:15.531Z,4.10
2022-09-11T11:07:08.397Z,4.70
2022-09-11T11:09:57.388Z,5.10
2022-09-11T11:12:53.242Z,5.00
2022-09-11T11:16:01.821Z,4.20
2022-09-11T11:23:23.524Z,4.40
2022-09-11T11:26:01.467Z,4.10
2022-09-11T11:29:23.048Z,3.70
2022-09-11T11:39:02.059Z,4.20
2022-09-11T11:42:09.075Z,3.70
2022-09-11T11:48:23.653Z,3.30
2022-09-11T11:51:44.601Z,3.30
2022-09-11T11:54:33.243Z,3.70
2022-09-11T12:07:53.395Z,3.00
2022-09-11T12:14:03.735Z,2.70
2022-09-11T12:16:41.103Z,2.50
2022-09-11T12:19:44.047Z,2.50
2022-09-11T12:22:53.401Z,2.50
2022-09-11T12:29:56.548Z,2.40
2022-09-11T12:32:46.122Z,2.30
2022-09-11T12:36:20.442Z,2.50
2022-09-11T12:39:29.387Z,2.90
2022-09-11T12:42:43.838Z,2.70
2022-09-11T12:45:38.604Z,2.80
2022-09-11T12:52:44.292Z,3.10
2022-09-11T12:55:36.554Z,2.60
2022-09-11T12:58:37.182Z,2.40
2022-09-11T13:04:29.580Z,2.60
2022-09-11T13:07:10.222Z,2.60
2022-09-11T13:09:49.917Z,3.00
2022-09-11T13:12:55.437Z,2.80
2022-09-11T13:16:08.977Z,3.00
2022-09-11T13:18:50.951Z,2.80
2022-09-11T13:21:34.579Z,3.30
2022-09-11T13:28:04.240Z,3.30
2022-09-11T13:31:00.915Z,2.90
2022-09-11T13:34:07.577Z,2.90
2022-09-11T13:37:10.140Z,2.90
2022-09-11T13:39:51.340Z,2.90
2022-09-11T13:49:38.798Z,2.50
2022-09-11T13:52:41.582Z,2.50
2022-09-11T13:55:39.715Z,2.80
2022-09-11T13:59:07.877Z,3.00
2022-09-11T14:02:09.621Z,2.90
2022-09-11T14:04:55.075Z,2.80
2022-09-11T14:07:30.157Z,3.20
2022-09-11T14:13:54.320Z,3.20
2022-09-11T14:17:01.618Z,3.70
2022-09-11T14:19:48.579Z,4.70
2022-09-11T14:23:00.853Z,5.00
2022-09-11T14:26:09.237Z,3.50
2022-09-11T14:32:40.936Z,3.90
2022-09-11T14:35:44.120Z,4.00
2022-09-11T14:38:55.399Z,4.10
2022-09-11T14:41:56.711Z,6.50
2022-09-11T14:44:33.652Z,5.40
2022-09-11T14:50:44.620Z,6.70
2022-09-11T14:53:21.807Z,6.70
2022-09-11T15:08:46.185Z,8.30
2022-09-11T15:11:57.814Z,10.10
2022-09-11T15:14:55.871Z,10.70
2022-09-11T15:17:42.991Z,9.70
2022-09-11T15:26:58.517Z,9.90
2022-09-11T15:30:24.552Z,10.20
2022-09-11T15:34:17.098Z,9.80
2022-09-11T15:40:39.958Z,11.10
2022-09-11T15:43:21.155Z,11.90
2022-09-11T15:49:34.195Z,11.90
2022-09-11T15:52:13.840Z,11.70
2022-09-11T15:54:53.140Z,10.90
2022-09-11T15:57:40.033Z,10.60
2022-09-11T16:00:45.057Z,19.60
2022-09-11T16:03:41.654Z,13.10
2022-09-11T16:09:28.425Z,9.20
2022-09-11T16:12:06.303Z,9.70
2022-09-11T16:17:54.326Z,9.70
2022-09-11T16:20:39.862Z,10.40
2022-09-11T16:23:43.631Z,10.70
2022-09-11T16:26:31.548Z,9.40
2022-09-11T16:32:59.894Z,10.20
2022-09-11T16:35:41.038Z,10.00
2022-09-11T16:38:44.219Z,12.30
2022-09-11T16:41:25.657Z,11.00
2022-09-11T16:44:36.537Z,10.90
2022-09-11T16:48:05.654Z,9.10
2022-09-11T16:50:51.844Z,9.00
2022-09-11T16:54:01.670Z,8.80
2022-09-11T16:56:46.054Z,8.20
2022-09-11T17:02:40.460Z,8.30
2022-09-11T17:05:40.672Z,7.80
2022-09-11T17:08:20.918Z,8.30
2022-09-11T17:14:30.826Z,7.70
2022-09-11T17:17:07.173Z,7.10
2022-09-11T17:22:57.445Z,9.40
2022-09-11T17:25:37.029Z,9.60
2022-09-11T17:28:24.386Z,9.50
2022-09-11T17:31:28.360Z,12.70
2022-09-11T17:34:32.245Z,9.20
2022-09-11T17:37:12.677Z,9.00
2022-09-11T17:39:51.365Z,8.80
2022-09-11T17:42:50.152Z,10.00
2022-09-11T17:45:54.521Z,9.40
2022-09-11T17:51:31.767Z,10.80
2022-09-11T17:54:37.731Z,10.40
2022-09-11T17:57:41.538Z,8.90
2022-09-11T18:00:30.885Z,8.90
2022-09-11T18:06:44.875Z,8.70
2022-09-11T18:09:29.820Z,8.70
2022-09-11T18:12:11.932Z,9.50
2022-09-11T18:14:54.998Z,9.60
2022-09-11T18:17:58.830Z,8.80
2022-09-11T18:24:09.918Z,7.20
2022-09-11T18:26:56.081Z,8.60
2022-09-11T18:30:01.195Z,6.90
2022-09-11T18:32:37.677Z,9.00
2022-09-11T18:35:42.962Z,9.00
2022-09-11T18:38:51.265Z,9.20
2022-09-11T18:42:03.275Z,8.30
2022-09-11T18:45:11.684Z,9.10
2022-09-11T18:54:35.926Z,7.90
2022-09-11T18:58:06.353Z,9.00
2022-09-11T19:00:48.771Z,8.30
2022-09-11T19:03:36.475Z,8.90
2022-09-11T19:06:25.827Z,9.60
2022-09-11T19:12:27.972Z,7.40
2022-09-11T19:18:34.147Z,6.80
2022-09-11T19:21:31.988Z,6.80
2022-09-11T19:24:32.617Z,6.90
2022-09-11T19:30:25.904Z,7.00
2022-09-11T19:33:05.810Z,6.80
2022-09-11T19:35:50.994Z,6.80
2022-09-11T19:38:34.992Z,7.30
2022-09-11T19:48:11.896Z,9.40
2022-09-11T19:50:49.050Z,11.10
2022-09-11T19:53:46.367Z,11.00
2022-09-11T19:56:25.910Z,11.90
2022-09-11T19:59:00.286Z,11.90
2022-09-11T20:01:40.346Z,11.80
2022-09-11T20:07:18.512Z,11.10
2022-09-11T20:09:50.916Z,9.10
2022-09-11T20:12:29.393Z,9.10
2022-09-11T20:15:15.279Z,10.20
2022-09-11T20:17:50.712Z,10.70
2022-09-11T20:20:36.835Z,10.90
2022-09-11T20:26:17.409Z,8.40
2022-09-11T20:29:03.014Z,8.80
2022-09-11T20:32:04.309Z,8.70
2022-09-11T20:34:41.190Z,9.00
2022-09-11T20:38:07.380Z,9.20
2022-09-11T20:40:44.500Z,9.00
2022-09-11T20:43:41.000Z,9.40
2022-09-11T20:47:04.856Z,9.20
2022-09-11T20:49:41.941Z,9.40
2022-09-11T20:55:42.564Z,9.70
2022-09-11T20:58:19.530Z,10.20
2022-09-11T21:04:17.197Z,9.50
2022-09-11T21:06:55.166Z,10.20
2022-09-11T21:09:28.733Z,9.90
2022-09-11T21:12:04.327Z,9.60
2022-09-11T21:14:40.750Z,10.20
2022-09-11T21:18:05.267Z,10.20
2022-09-11T21:20:41.904Z,10.40
2022-09-11T21:23:21.056Z,10.90
2022-09-11T21:26:26.605Z,10.50
2022-09-11T21:29:11.697Z,12.20
2022-09-11T21:31:56.130Z,12.40
2022-09-11T21:35:17.257Z,12.80
2022-09-11T21:38:00.480Z,12.30
2022-09-11T21:40:37.649Z,13.10
2022-09-11T21:43:12.434Z,12.00
2022-09-11T21:45:44.545Z,12.20
2022-09-11T21:51:41.881Z,11.90
2022-09-11T21:54:18.723Z,12.40
2022-09-11T22:00:24.470Z,12.50
2022-09-11T22:02:59.835Z,12.00
2022-09-11T22:12:13.526Z,12.00
2022-09-11T22:18:38.747Z,11.80
2022-09-11T22:24:44.442Z,12.00
2022-09-11T22:27:45.064Z,12.20
2022-09-11T22:31:13.485Z,12.50
2022-09-11T22:34:14.849Z,13.10
2022-09-11T22:36:55.139Z,13.30
2022-09-11T22:39:29.606Z,13.70
2022-09-11T22:42:09.324Z,14.40
2022-09-11T22:45:36.308Z,14.30
2022-09-11T22:48:14.557Z,14.40
2022-09-11T22:51:19.427Z,14.40
2022-09-11T22:53:55.103Z,14.40
2022-09-11T22:56:57.047Z,14.70
2022-09-11T22:59:31.652Z,14.70
2022-09-11T23:02:52.821Z,15.10
2022-09-11T23:08:49.437Z,14.90
2022-09-11T23:11:50.063Z,17.40
2022-09-11T23:15:19.195Z,17.30
2022-09-11T23:18:02.207Z,17.30
2022-09-11T23:24:06.544Z,16.70
2022-09-11T23:27:06.840Z,17.20
2022-09-11T23:29:41.698Z,17.70
2022-09-11T23:32:18.616Z,18.00
2022-09-11T23:35:16.691Z,17.70
2022-09-11T23:38:42.952Z,17.90
2022-09-11T23:44:45.306Z,18.30
2022-09-11T23:48:11.118Z,17.30
2022-09-11T23:50:45.810Z,17.60
2022-09-11T23:53:47.804Z,19.10
2022-09-11T23:56:50.547Z,18.40
